createdAt,value
2019-01-10T00:01:14.565Z,79.58
2019-01-10T00:03:45.014Z,79.62
2019-01-10T00:06:15.584Z,79.68
2019-01-10T00:08:45.942Z,79.61
2019-01-10T00:11:17.657Z,79.62
2019-01-10T00:13:47.958Z,79.57
2019-01-10T00:16:18.608Z,79.59
2019-01-10T00:18:50.432Z,79.58
2019-01-10T00:21:21.037Z,79.67
2019-01-10T00:23:51.526Z,79.80
2019-01-10T00:26:22.370Z,79.83
2019-01-10T00:28:54.460Z,79.82
2019-01-10T00:31:24.865Z,79.80
2019-01-10T00:33:55.547Z,79.82
2019-01-10T00:36:25.898Z,79.82
2019-01-10T00:38:56.310Z,79.85
2019-01-10T00:41:26.806Z,79.96
2019-01-10T00:43:57.233Z,79.87
2019-01-10T00:46:27.606Z,79.81
2019-01-10T00:48:58.150Z,79.70
2019-01-10T00:51:30.019Z,79.65
2019-01-10T00:54:00.308Z,79.48
2019-01-10T00:56:30.606Z,79.31
2019-01-10T00:59:02.909Z,79.26
2019-01-10T01:01:33.262Z,79.07
2019-01-10T01:04:06.175Z,78.95
2019-01-10T01:06:37.577Z,78.92
2019-01-10T01:09:09.250Z,78.93
2019-01-10T01:11:39.861Z,78.84
2019-01-10T01:14:10.459Z,78.89
2019-01-10T01:16:40.755Z,78.75
2019-01-10T01:19:12.703Z,78.47
2019-01-10T01:21:45.469Z,78.22
2019-01-10T01:24:15.679Z,77.91
2019-01-10T01:26:46.008Z,77.66
2019-01-10T01:29:18.577Z,77.51
2019-01-10T01:31:48.964Z,77.37
2019-01-10T01:34:19.490Z,77.32
2019-01-10T01:36:50.014Z,77.36
2019-01-10T01:39:20.427Z,77.35
2019-01-10T01:41:51.231Z,77.19
2019-01-10T01:44:21.750Z,77.02
2019-01-10T01:46:52.689Z,76.96
2019-01-10T01:49:23.218Z,76.93
2019-01-10T01:51:55.041Z,76.95
2019-01-10T01:54:25.372Z,77.06
2019-01-10T01:56:57.455Z,77.06
2019-01-10T01:59:27.744Z,77.08
2019-01-10T02:01:58.337Z,77.18
2019-01-10T02:04:28.753Z,77.18
2019-01-10T02:07:00.245Z,77.05
2019-01-10T02:09:32.114Z,76.93
2019-01-10T02:12:03.209Z,76.89
2019-01-10T02:14:33.733Z,76.90
2019-01-10T02:17:04.101Z,76.90
2019-01-10T02:19:34.422Z,76.90
2019-01-10T02:22:05.943Z,76.84
2019-01-10T02:24:36.373Z,76.75
2019-01-10T02:27:06.945Z,76.62
2019-01-10T02:29:37.255Z,76.46
2019-01-10T02:32:07.948Z,76.39
2019-01-10T02:34:40.028Z,76.41
2019-01-10T02:37:10.295Z,76.50
2019-01-10T02:39:40.716Z,76.55
2019-01-10T02:42:11.193Z,76.61
2019-01-10T02:44:41.773Z,76.70
2019-01-10T02:47:13.563Z,76.84
2019-01-10T02:49:43.860Z,76.94
2019-01-10T02:52:14.402Z,76.99
2019-01-10T02:54:45.896Z,77.06
2019-01-10T02:57:16.243Z,77.16
2019-01-10T02:59:48.667Z,77.10
2019-01-10T03:02:18.914Z,77.21
2019-01-10T03:04:51.605Z,77.30
2019-01-10T03:07:21.931Z,77.33
2019-01-10T03:09:52.439Z,77.25
2019-01-10T03:12:22.812Z,77.18
2019-01-10T03:14:54.819Z,77.30
2019-01-10T03:17:26.927Z,77.25
2019-01-10T03:19:59.599Z,77.18
2019-01-10T03:22:31.587Z,77.08
2019-01-10T03:25:04.330Z,76.85
2019-01-10T03:27:36.792Z,76.67
2019-01-10T03:30:09.706Z,76.47
2019-01-10T03:32:40.001Z,76.35
2019-01-10T03:35:13.486Z,76.25
2019-01-10T03:37:43.795Z,76.25
2019-01-10T03:40:17.655Z,76.10
2019-01-10T03:42:48.042Z,76.07
2019-01-10T03:45:20.505Z,75.98
2019-01-10T03:47:50.868Z,75.85
2019-01-10T03:50:21.529Z,75.86
2019-01-10T03:52:53.516Z,75.85
2019-01-10T03:55:23.856Z,75.77
2019-01-10T03:57:54.680Z,75.84
2019-01-10T04:00:25.969Z,75.83
2019-01-10T04:02:56.485Z,75.76
2019-01-10T04:05:26.933Z,75.82
2019-01-10T04:07:59.231Z,76.00
2019-01-10T04:10:29.805Z,76.11
2019-01-10T04:13:00.413Z,76.15
2019-01-10T04:15:30.755Z,76.16
2019-01-10T04:18:01.628Z,76.22
2019-01-10T04:20:31.987Z,76.22
2019-01-10T04:23:02.512Z,76.45
2019-01-10T04:25:32.823Z,76.62
2019-01-10T04:28:05.330Z,76.74
2019-01-10T04:30:37.097Z,76.79
2019-01-10T04:33:07.692Z,76.94
2019-01-10T04:35:38.122Z,76.94
2019-01-10T04:38:09.912Z,76.96
2019-01-10T04:40:40.524Z,76.94
2019-01-10T04:43:11.340Z,76.91
2019-01-10T04:45:42.637Z,76.80
2019-01-10T04:48:12.919Z,76.81
2019-01-10T04:50:43.475Z,76.84
2019-01-10T04:53:13.821Z,76.77
2019-01-10T04:55:44.473Z,76.74
2019-01-10T04:58:14.764Z,76.74
2019-01-10T05:00:45.525Z,76.60
2019-01-10T05:03:15.820Z,76.50
2019-01-10T05:05:46.730Z,76.41
2019-01-10T05:08:17.080Z,76.33
2019-01-10T05:10:47.889Z,76.30
2019-01-10T05:13:21.309Z,76.32
2019-01-10T05:15:51.792Z,76.32
2019-01-10T05:18:22.107Z,76.28
2019-01-10T05:20:53.767Z,76.30
2019-01-10T05:23:24.354Z,76.27
2019-01-10T05:25:55.906Z,76.48
2019-01-10T05:28:26.205Z,76.41
2019-01-10T05:30:56.843Z,76.34
2019-01-10T05:33:27.207Z,76.37
2019-01-10T05:35:58.006Z,76.50
2019-01-10T05:38:29.612Z,76.68
2019-01-10T05:40:59.933Z,76.70
2019-01-10T05:43:30.546Z,76.53
2019-01-10T05:46:00.839Z,76.53
2019-01-10T05:48:31.702Z,76.38
2019-01-10T05:51:04.973Z,76.26
2019-01-10T05:53:35.678Z,76.29
2019-01-10T05:56:15.005Z,76.34
2019-01-10T05:58:38.294Z,76.54
2019-01-10T06:01:08.594Z,76.66
2019-01-10T06:03:39.641Z,76.77
2019-01-10T06:06:09.968Z,76.92
2019-01-10T06:08:40.486Z,76.98
2019-01-10T06:11:10.840Z,76.95
2019-01-10T06:13:41.245Z,76.98
2019-01-10T06:16:11.749Z,76.97
2019-01-10T06:18:43.302Z,76.99
2019-01-10T06:21:13.601Z,76.90
2019-01-10T06:23:45.118Z,76.74
2019-01-10T06:26:15.438Z,76.60
2019-01-10T06:28:47.146Z,76.57
2019-01-10T06:31:17.661Z,76.58
2019-01-10T06:33:49.399Z,76.53
2019-01-10T06:36:22.088Z,76.51
2019-01-10T06:38:52.694Z,76.33
2019-01-10T06:41:23.432Z,76.14
2019-01-10T06:43:54.149Z,75.94
2019-01-10T06:46:24.774Z,75.69
2019-01-10T06:48:55.190Z,75.59
2019-01-10T06:51:25.756Z,75.55
2019-01-10T06:56:46.308Z,75.49
2019-01-10T07:01:44.419Z,75.37
2019-01-10T07:04:14.775Z,75.31
2019-01-10T07:06:45.093Z,75.39
2019-01-10T07:09:15.670Z,75.50
2019-01-10T07:11:45.980Z,75.54
2019-01-10T07:14:17.251Z,75.40
2019-01-10T07:16:53.487Z,75.35
2019-01-10T07:19:44.853Z,75.31
2019-01-10T07:22:18.328Z,75.38
2019-01-10T07:24:52.670Z,75.44
2019-01-10T07:27:23.205Z,75.35
2019-01-10T07:29:59.674Z,75.31
2019-01-10T07:32:32.145Z,75.29
2019-01-10T07:35:05.467Z,75.34
2019-01-10T07:37:38.227Z,75.20
2019-01-10T07:40:15.006Z,75.08
2019-01-10T07:42:45.632Z,75.07
2019-01-10T07:45:19.016Z,75.03
2019-01-10T07:47:50.605Z,75.03
2019-01-10T07:50:51.479Z,75.01
2019-01-10T07:53:21.816Z,74.91
2019-01-10T07:55:52.603Z,74.80
2019-01-10T07:58:22.932Z,74.72
2019-01-10T08:00:54.513Z,74.76
2019-01-10T08:03:26.265Z,74.90
2019-01-10T08:05:57.034Z,74.88
2019-01-10T08:08:27.497Z,74.97
2019-01-10T08:10:58.061Z,74.94
2019-01-10T08:13:30.352Z,74.94
2019-01-10T08:16:00.709Z,74.74
2019-01-10T08:18:31.356Z,74.57
2019-01-10T08:21:01.723Z,74.44
2019-01-10T08:23:33.921Z,74.32
2019-01-10T08:26:06.034Z,74.01
2019-01-10T08:28:36.742Z,73.93
2019-01-10T08:31:07.396Z,73.75
2019-01-10T08:33:38.135Z,73.44
2019-01-10T08:36:08.602Z,73.43
2019-01-10T08:38:39.903Z,73.31
2019-01-10T08:41:10.386Z,73.42
2019-01-10T08:43:40.752Z,73.44
2019-01-10T08:46:11.156Z,73.31
2019-01-10T08:48:42.960Z,73.30
2019-01-10T08:51:13.514Z,73.35
2019-01-10T08:53:53.590Z,73.37
2019-01-10T08:56:15.984Z,73.32
2019-01-10T08:58:48.897Z,73.30
2019-01-10T09:01:19.494Z,73.24
2019-01-10T09:03:51.813Z,73.25
2019-01-10T09:06:23.551Z,73.22
2019-01-10T09:08:53.853Z,73.06
2019-01-10T09:11:24.612Z,72.61
2019-01-10T09:13:56.223Z,72.51
2019-01-10T09:16:26.690Z,72.44
2019-01-10T09:18:57.305Z,72.24
2019-01-10T09:21:27.896Z,72.22
2019-01-10T09:23:58.568Z,72.18
2019-01-10T09:26:37.699Z,72.18
2019-01-10T09:29:02.269Z,72.28
2019-01-10T09:31:32.906Z,72.20
2019-01-10T09:34:03.333Z,72.09
2019-01-10T09:36:33.919Z,71.76
2019-01-10T09:39:06.537Z,71.55
2019-01-10T09:41:37.322Z,71.55
2019-01-10T09:44:08.133Z,71.77
2019-01-10T09:46:38.818Z,71.99
2019-01-10T09:49:09.218Z,71.99
2019-01-10T09:51:39.900Z,71.46
2019-01-10T09:54:10.226Z,71.49
2019-01-10T09:56:42.017Z,71.25
2019-01-10T09:59:12.326Z,71.06
2019-01-10T10:01:46.153Z,70.67
2019-01-10T10:04:16.628Z,70.55
2019-01-10T10:06:49.856Z,70.26
2019-01-10T10:09:20.138Z,69.72
2019-01-10T10:11:52.321Z,69.68
2019-01-10T10:14:22.966Z,69.52
2019-01-10T10:16:53.639Z,69.52
2019-01-10T10:19:23.950Z,69.40
2019-01-10T10:21:54.538Z,69.08
2019-01-10T10:24:25.170Z,68.90
2019-01-10T10:26:55.980Z,68.30
2019-01-10T10:29:26.606Z,67.83
2019-01-10T10:31:56.879Z,67.82
2019-01-10T10:34:28.206Z,67.79
2019-01-10T10:36:58.842Z,67.36
2019-01-10T10:39:29.773Z,67.00
2019-01-10T10:42:01.536Z,67.02
2019-01-10T10:44:31.953Z,66.65
2019-01-10T10:47:02.490Z,66.80
2019-01-10T10:49:34.152Z,66.75
2019-01-10T10:52:04.820Z,66.75
2019-01-10T10:54:35.125Z,66.42
2019-01-10T10:57:07.457Z,66.67
2019-01-10T10:59:38.139Z,66.87
2019-01-10T11:02:12.744Z,66.89
2019-01-10T11:04:43.080Z,66.56
2019-01-10T11:07:13.399Z,66.90
2019-01-10T11:09:44.659Z,66.65
2019-01-10T11:12:18.420Z,66.81
2019-01-10T11:14:49.359Z,66.71
2019-01-10T11:17:19.682Z,66.78
2019-01-10T11:19:52.490Z,66.28
2019-01-10T11:22:22.780Z,66.47
2019-01-10T11:24:53.247Z,66.06
2019-01-10T11:27:23.546Z,66.09
2019-01-10T11:29:55.169Z,66.11
2019-01-10T11:32:25.618Z,65.94
2019-01-10T11:34:56.111Z,66.05
2019-01-10T11:37:26.757Z,65.64
2019-01-10T11:39:57.416Z,65.70
2019-01-10T11:42:28.991Z,65.84
2019-01-10T11:45:01.403Z,65.77
2019-01-10T11:47:32.253Z,65.31
2019-01-10T11:50:02.656Z,64.51
2019-01-10T11:52:33.099Z,64.24
2019-01-10T11:55:03.925Z,63.78
2019-01-10T11:57:34.622Z,63.87
2019-01-10T12:00:08.041Z,63.77
2019-01-10T12:02:38.624Z,63.98
2019-01-10T12:05:10.196Z,63.98
2019-01-10T12:07:41.919Z,63.53
2019-01-10T12:10:12.576Z,63.53
2019-01-10T12:12:43.116Z,64.25
2019-01-10T12:15:13.728Z,64.45
2019-01-10T12:17:47.346Z,64.53
2019-01-10T12:20:17.988Z,64.30
2019-01-10T12:22:49.754Z,64.37
2019-01-10T12:25:20.392Z,64.37
2019-01-10T12:27:50.975Z,64.78
2019-01-10T12:30:23.871Z,64.67
2019-01-10T12:32:54.296Z,64.40
2019-01-10T12:35:25.951Z,64.08
2019-01-10T12:37:58.914Z,63.05
2019-01-10T12:40:30.796Z,62.79
2019-01-10T12:43:01.452Z,63.15
2019-01-10T12:45:31.917Z,63.35
2019-01-10T12:48:03.853Z,63.60
2019-01-10T12:50:35.009Z,64.24
2019-01-10T12:53:09.762Z,64.28
2019-01-10T12:55:44.907Z,64.07
2019-01-10T12:58:17.926Z,63.97
2019-01-10T13:00:48.260Z,63.87
2019-01-10T13:03:18.640Z,63.85
2019-01-10T13:05:48.963Z,64.10
2019-01-10T13:08:20.654Z,64.44
2019-01-10T13:10:52.867Z,65.00
2019-01-10T13:13:23.441Z,65.00
2019-01-10T13:15:54.076Z,64.73
2019-01-10T13:18:24.423Z,64.42
2019-01-10T13:20:59.463Z,64.42
2019-01-10T13:23:28.735Z,64.69
2019-01-10T13:25:59.990Z,64.69
2019-01-10T13:28:30.319Z,64.23
2019-01-10T13:31:01.620Z,64.01
2019-01-10T13:33:31.928Z,63.96
2019-01-10T13:36:02.677Z,63.38
2019-01-10T13:38:32.974Z,63.38
2019-01-10T13:41:03.310Z,64.05
2019-01-10T13:43:33.835Z,63.78
2019-01-10T13:46:05.599Z,63.62
2019-01-10T13:48:37.963Z,63.50
2019-01-10T13:51:08.531Z,63.43
2019-01-10T13:53:39.276Z,63.81
2019-01-10T13:56:14.282Z,63.74
2019-01-10T13:58:46.025Z,63.89
2019-01-10T14:01:16.613Z,64.14
2019-01-10T14:03:47.217Z,64.09
2019-01-10T14:06:17.930Z,64.08
2019-01-10T14:08:48.224Z,64.37
2019-01-10T14:11:18.848Z,64.86
2019-01-10T14:13:49.247Z,65.04
2019-01-10T14:16:22.271Z,64.95
2019-01-10T14:18:52.570Z,65.12
2019-01-10T14:21:22.931Z,65.35
2019-01-10T14:23:53.560Z,65.57
2019-01-10T14:26:27.004Z,65.52
2019-01-10T14:28:59.120Z,65.51
2019-01-10T14:31:29.419Z,65.46
2019-01-10T14:33:59.885Z,65.57
2019-01-10T14:36:33.314Z,65.73
2019-01-10T14:39:08.772Z,65.91
2019-01-10T14:41:39.285Z,66.12
2019-01-10T14:44:09.935Z,66.46
2019-01-10T14:46:40.852Z,66.70
2019-01-10T14:49:13.234Z,66.88
2019-01-10T14:51:43.860Z,66.88
2019-01-10T14:54:14.279Z,66.88
2019-01-10T14:56:44.575Z,67.04
2019-01-10T14:59:20.542Z,67.15
2019-01-10T15:01:49.415Z,67.20
2019-01-10T15:04:20.800Z,67.43
2019-01-10T15:06:51.070Z,67.72
2019-01-10T15:09:21.911Z,68.04
2019-01-10T15:11:52.238Z,68.41
2019-01-10T15:14:23.691Z,68.75
2019-01-10T15:16:54.152Z,69.04
2019-01-10T15:19:24.950Z,69.38
2019-01-10T15:21:56.357Z,69.42
2019-01-10T15:24:26.656Z,69.54
2019-01-10T15:26:57.485Z,69.67
2019-01-10T15:29:27.856Z,69.90
2019-01-10T15:31:58.206Z,69.95
2019-01-10T15:34:28.873Z,70.06
2019-01-10T15:37:06.718Z,70.23
2019-01-10T15:39:37.394Z,70.43
2019-01-10T15:42:07.862Z,70.60
2019-01-10T15:44:39.779Z,70.87
2019-01-10T15:47:12.103Z,70.94
2019-01-10T15:49:43.107Z,71.09
2019-01-10T15:52:15.106Z,71.22
2019-01-10T15:54:45.756Z,71.28
2019-01-10T15:57:16.119Z,71.44
2019-01-10T15:59:46.763Z,71.52
2019-01-10T16:02:17.412Z,71.53
2019-01-10T16:04:52.202Z,71.55
2019-01-10T16:07:22.800Z,71.65
2019-01-10T16:09:55.374Z,71.77
2019-01-10T16:12:25.666Z,72.02
2019-01-10T16:14:56.785Z,72.29
2019-01-10T16:17:27.069Z,72.20
2019-01-10T16:19:58.522Z,72.12
2019-01-10T16:22:28.868Z,72.49
2019-01-10T16:25:00.005Z,72.55
2019-01-10T16:27:32.050Z,72.59
2019-01-10T16:30:07.084Z,72.79
2019-01-10T16:32:37.463Z,72.89
2019-01-10T16:35:08.385Z,72.96
2019-01-10T16:37:39.157Z,73.06
2019-01-10T16:40:10.397Z,73.13
2019-01-10T16:42:40.869Z,73.14
2019-01-10T16:45:15.898Z,73.13
2019-01-10T16:47:46.869Z,73.16
2019-01-10T16:50:18.280Z,73.33
2019-01-10T16:52:48.673Z,73.37
2019-01-10T16:55:19.349Z,73.35
2019-01-10T16:57:49.999Z,73.50
2019-01-10T17:00:26.549Z,73.64
2019-01-10T17:02:56.941Z,73.59
2019-01-10T17:05:27.406Z,73.66
2019-01-10T17:07:59.426Z,73.77
2019-01-10T17:10:29.745Z,73.80
2019-01-10T17:15:36.933Z,74.03
2019-01-10T17:18:07.870Z,74.04
2019-01-10T17:20:40.193Z,74.00
2019-01-10T17:23:13.583Z,74.02
2019-01-10T17:25:45.567Z,73.97
2019-01-10T17:28:16.356Z,74.09
2019-01-10T17:30:49.388Z,73.94
2019-01-10T17:33:19.834Z,73.91
2019-01-10T17:35:50.281Z,74.09
2019-01-10T17:38:20.782Z,73.92
2019-01-10T17:40:51.458Z,73.85
2019-01-10T17:43:22.939Z,73.77
2019-01-10T17:46:01.469Z,73.76
2019-01-10T17:48:30.217Z,73.79
2019-01-10T17:51:01.052Z,73.82
2019-01-10T17:53:31.519Z,73.94
2019-01-10T17:56:05.100Z,73.88
2019-01-10T17:58:35.498Z,73.85
2019-01-10T18:01:08.041Z,73.86
2019-01-10T18:03:40.375Z,73.77
2019-01-10T18:06:10.671Z,73.79
2019-01-10T18:08:42.012Z,73.76
2019-01-10T18:11:14.735Z,73.74
2019-01-10T18:13:46.615Z,73.75
2019-01-10T18:16:17.547Z,73.82
2019-01-10T18:18:48.328Z,73.74
2019-01-10T18:21:20.240Z,73.69
2019-01-10T18:23:54.975Z,73.72
2019-01-10T18:26:27.131Z,73.73
2019-01-10T18:28:57.994Z,73.81
2019-01-10T18:31:30.763Z,73.86
2019-01-10T18:34:01.215Z,73.83
2019-01-10T18:36:36.061Z,73.78
2019-01-10T18:39:08.401Z,73.82
2019-01-10T18:41:41.503Z,73.75
2019-01-10T18:44:14.038Z,73.83
2019-01-10T18:46:45.923Z,73.76
2019-01-10T18:49:23.291Z,73.71
2019-01-10T18:51:55.692Z,73.65
2019-01-10T18:54:27.185Z,73.69
2019-01-10T18:56:57.879Z,73.69
2019-01-10T18:59:28.362Z,73.67
2019-01-10T19:01:59.521Z,73.67
2019-01-10T19:04:29.954Z,73.62
2019-01-10T19:07:00.349Z,73.71
2019-01-10T19:09:30.980Z,73.64
2019-01-10T19:12:01.772Z,73.77
2019-01-10T19:14:32.703Z,73.81
2019-01-10T19:17:05.840Z,73.88
2019-01-10T19:19:36.546Z,74.14
2019-01-10T19:22:07.021Z,74.37
2019-01-10T19:24:37.717Z,74.56
2019-01-10T19:27:10.024Z,74.87
2019-01-10T19:29:40.364Z,74.98
2019-01-10T19:32:11.030Z,75.08
2019-01-10T19:34:41.717Z,75.35
2019-01-10T19:37:12.415Z,75.34
2019-01-10T19:39:42.830Z,75.21
2019-01-10T19:42:13.265Z,75.15
2019-01-10T19:44:44.471Z,75.27
2019-01-10T19:47:16.570Z,75.23
2019-01-10T19:49:47.175Z,75.51
2019-01-10T19:52:18.822Z,75.67
2019-01-10T19:54:53.787Z,76.03
2019-01-10T19:57:24.426Z,76.17
2019-01-10T19:59:54.821Z,76.71
2019-01-10T20:02:26.858Z,76.81
2019-01-10T20:04:58.371Z,76.91
2019-01-10T20:07:29.025Z,77.01
2019-01-10T20:09:59.910Z,77.09
2019-01-10T20:12:34.546Z,77.10
2019-01-10T20:15:06.264Z,77.12
2019-01-10T20:17:38.247Z,77.26
2019-01-10T20:20:14.681Z,77.31
2019-01-10T20:22:48.059Z,77.41
2019-01-10T20:25:18.550Z,77.50
2019-01-10T20:27:49.749Z,77.59
2019-01-10T20:30:20.829Z,77.58
2019-01-10T20:32:51.608Z,77.47
2019-01-10T20:35:22.140Z,77.44
2019-01-10T20:37:56.473Z,77.36
2019-01-10T20:40:26.963Z,77.31
2019-01-10T20:42:58.215Z,77.39
2019-01-10T20:45:30.168Z,77.35
2019-01-10T20:48:01.525Z,77.28
2019-01-10T20:50:32.307Z,77.33
2019-01-10T20:53:03.959Z,77.34
2019-01-10T20:55:36.208Z,77.29
2019-01-10T20:58:07.891Z,77.22
2019-01-10T21:00:40.201Z,77.20
2019-01-10T21:03:10.610Z,77.28
2019-01-10T21:05:47.952Z,77.29
2019-01-10T21:08:18.642Z,77.29
2019-01-10T21:10:48.990Z,77.34
2019-01-10T21:13:20.189Z,77.43
2019-01-10T21:15:53.478Z,77.63
2019-01-10T21:18:28.637Z,78.25
2019-01-10T21:20:58.280Z,78.25
2019-01-10T21:23:29.343Z,77.97
2019-01-10T21:25:59.997Z,77.93
2019-01-10T21:28:30.705Z,77.97
2019-01-10T21:31:01.672Z,78.28
2019-01-10T21:33:33.813Z,78.33
2019-01-10T21:36:04.751Z,78.31
2019-01-10T21:38:35.277Z,78.36
2019-01-10T21:41:06.396Z,78.44
2019-01-10T21:43:36.962Z,78.53
2019-01-10T21:46:07.322Z,78.63
2019-01-10T21:48:38.068Z,78.67
2019-01-10T21:51:08.704Z,78.82
2019-01-10T21:53:39.195Z,78.93
2019-01-10T21:56:11.768Z,79.02
2019-01-10T21:58:42.085Z,79.10
2019-01-10T22:01:13.697Z,79.16
2019-01-10T22:03:44.484Z,79.18
2019-01-10T22:06:20.482Z,79.23
2019-01-10T22:08:50.771Z,79.49
2019-01-10T22:11:38.330Z,79.56
2019-01-10T22:14:01.390Z,79.63
2019-01-10T22:16:31.948Z,79.65
2019-01-10T22:19:02.328Z,79.75
2019-01-10T22:21:33.060Z,79.87
2019-01-10T22:24:03.528Z,79.95
2019-01-10T22:26:34.340Z,80.16
2019-01-10T22:29:07.812Z,80.28
2019-01-10T22:31:38.496Z,80.28
2019-01-10T22:34:14.794Z,80.43
2019-01-10T22:36:45.475Z,80.47
2019-01-10T22:39:16.158Z,80.65
2019-01-10T22:41:47.931Z,80.78
2019-01-10T22:44:18.291Z,80.80
2019-01-10T22:46:50.419Z,80.91
2019-01-10T22:49:20.822Z,81.06
2019-01-10T22:51:55.390Z,81.14
2019-01-10T22:54:27.226Z,81.21
2019-01-10T22:57:01.063Z,81.31
2019-01-10T22:59:31.429Z,81.42
2019-01-10T23:02:02.323Z,81.55
2019-01-10T23:04:36.672Z,81.66
2019-01-10T23:07:22.090Z,81.72
2019-01-10T23:09:54.194Z,81.75
2019-01-10T23:12:33.435Z,81.96
2019-01-10T23:15:30.277Z,81.96
2019-01-10T23:18:02.567Z,81.93
2019-01-10T23:20:34.214Z,81.98
2019-01-10T23:23:07.592Z,82.06
2019-01-10T23:25:37.978Z,82.10
2019-01-10T23:28:13.263Z,82.14
2019-01-10T23:30:48.464Z,82.14
2019-01-10T23:33:21.703Z,82.18
2019-01-10T23:35:57.764Z,82.19
2019-01-10T23:38:28.505Z,82.21
2019-01-10T23:40:59.597Z,82.29
2019-01-10T23:43:30.305Z,82.31
2019-01-10T23:46:00.903Z,82.61
2019-01-10T23:48:31.540Z,82.61
2019-01-10T23:51:02.213Z,82.40
2019-01-10T23:53:32.628Z,82.43
2019-01-10T23:56:04.032Z,82.44
2019-01-10T23:58:36.972Z,82.48
